ADDS METAR Data INFO
IDs: Format: Raw Decoded Include TAF

Data at: 0937 UTC 19 Jul 2018

METAR for:KMWO (Middletown/Hook Fld, OH, US)
Text:KMWO 190915Z AUTO 36004KT 10SM CLR 15/14 A3006 RMK AO2 T01460137
Temperature: 14.6°C ( 58°F)
Dewpoint: 13.7°C ( 57°F) [RH = 94%]
Pressure (altimeter):30.06 inches Hg (1018.0 mb)
Winds:from the N (360 degrees) at 5 MPH (4 knots; 2.1 m/s)
Visibility:10 or more sm (16+ km)
Ceiling:at least 12,000 feet AGL
Clouds:sky clear below 12,000 feet AGL
QC Flag:automated observation with no human augmentation